Fort Duchesne, Utah
Current Conditions -  °F | °C
As of 9:53 AM on Friday 28 Nov 2014 (Local Time) from KVEL Reporting Station
Clear Clear  
Wind Chill: 37°   Ceiling: Unl
Heat Index: 37°   Visibility: 10mi
Dew Point: 25°   Wind: 3mph
Humidity: 62%   Direction: 70°ENE
Pressure: 30.14"   Gusts: NA
Location:  40.29°N, 109.86°W
Report Text: KVEL 281653Z AUTO 07003KT 10SM CLR 03/M04 A3014 RMK AO2 SLP215 T00281039
Loading
Personal Weather Stations






























Interactive Weather Map New forecast layout! Learn more

10-Day Weather Forecast

Advertisements
Track Severe Weather on mobile